createdAt,value
2023-02-28T00:01:10.183Z,46.20
2023-02-28T00:03:36.734Z,46.20
2023-02-28T00:06:03.257Z,46.00
2023-02-28T00:08:29.759Z,46.20
2023-02-28T00:10:56.266Z,46.20
2023-02-28T00:13:22.774Z,46.10
2023-02-28T00:15:49.256Z,46.00
2023-02-28T00:18:15.751Z,46.60
2023-02-28T00:20:42.263Z,46.10
2023-02-28T00:23:08.747Z,46.00
2023-02-28T00:25:35.270Z,46.00
2023-02-28T00:28:01.766Z,46.00
2023-02-28T00:30:28.299Z,46.00
2023-02-28T00:32:54.790Z,46.00
2023-02-28T00:35:21.327Z,45.90
2023-02-28T00:37:47.815Z,46.00
2023-02-28T00:40:16.592Z,46.00
2023-02-28T00:42:43.084Z,46.00
2023-02-28T00:45:09.578Z,46.10
2023-02-28T00:47:36.242Z,46.00
2023-02-28T00:50:02.916Z,45.90
2023-02-28T00:52:29.403Z,45.90
2023-02-28T00:54:55.915Z,45.90
2023-02-28T00:57:22.410Z,45.80
2023-02-28T00:59:52.828Z,45.80
2023-02-28T01:02:19.312Z,45.80
2023-02-28T01:04:45.873Z,45.80
2023-02-28T01:07:12.403Z,45.70
2023-02-28T01:09:38.907Z,45.90
2023-02-28T01:12:05.400Z,45.80
2023-02-28T01:14:31.904Z,45.60
2023-02-28T01:16:58.413Z,45.70
2023-02-28T01:19:24.905Z,46.30
2023-02-28T01:21:51.403Z,45.80
2023-02-28T01:24:17.896Z,45.70
2023-02-28T01:26:44.424Z,45.60
2023-02-28T01:29:10.917Z,45.60
2023-02-28T01:31:37.438Z,45.60
2023-02-28T01:34:03.967Z,45.60
2023-02-28T01:36:30.475Z,45.60
2023-02-28T01:38:56.979Z,45.60
2023-02-28T01:41:23.482Z,45.60
2023-02-28T01:43:49.993Z,45.60
2023-02-28T01:46:16.525Z,45.60
2023-02-28T01:48:43.030Z,45.50
2023-02-28T01:51:09.539Z,45.50
2023-02-28T01:53:36.056Z,45.60
2023-02-28T01:56:02.579Z,45.50
2023-02-28T01:58:29.103Z,45.50
2023-02-28T02:00:55.598Z,45.60
2023-02-28T02:03:22.106Z,45.50
2023-02-28T02:05:48.775Z,45.60
2023-02-28T02:08:15.358Z,45.50
2023-02-28T02:10:41.856Z,45.50
2023-02-28T02:13:08.332Z,45.40
2023-02-28T02:15:34.827Z,45.40
2023-02-28T02:18:01.328Z,45.40
2023-02-28T02:20:27.927Z,45.50
2023-02-28T02:22:54.419Z,45.40
2023-02-28T02:25:20.910Z,45.40
2023-02-28T02:27:47.409Z,45.40
2023-02-28T02:30:13.910Z,45.50
2023-02-28T02:32:40.404Z,45.40
2023-02-28T02:35:06.887Z,45.40
2023-02-28T02:37:33.371Z,45.40
2023-02-28T02:39:59.849Z,45.30
2023-02-28T02:42:26.348Z,45.30
2023-02-28T02:44:52.829Z,45.20
2023-02-28T02:47:19.326Z,45.40
2023-02-28T02:49:45.807Z,45.20
2023-02-28T02:52:12.310Z,45.20
2023-02-28T02:54:38.791Z,45.20
2023-02-28T02:57:05.257Z,45.20
2023-02-28T02:59:31.706Z,45.20
2023-02-28T03:01:58.182Z,45.30
2023-02-28T03:04:24.669Z,45.30
2023-02-28T03:06:51.152Z,45.20
2023-02-28T03:09:17.638Z,45.20
2023-02-28T03:11:44.116Z,45.10
2023-02-28T03:14:10.589Z,45.20
2023-02-28T03:16:37.100Z,45.20
2023-02-28T03:19:03.593Z,45.10
2023-02-28T03:21:30.368Z,45.00
2023-02-28T03:23:57.031Z,45.10
2023-02-28T03:26:23.527Z,45.10
2023-02-28T03:28:50.011Z,45.20
2023-02-28T03:31:16.499Z,45.20
2023-02-28T03:33:42.976Z,45.10
2023-02-28T03:36:09.456Z,45.30
2023-02-28T03:38:35.922Z,45.10
2023-02-28T03:41:02.422Z,45.10
2023-02-28T03:43:28.904Z,45.10
2023-02-28T03:45:55.437Z,45.10
2023-02-28T03:48:21.958Z,45.10
2023-02-28T03:50:48.443Z,45.10
2023-02-28T03:53:14.933Z,45.20
2023-02-28T03:55:41.416Z,45.10
2023-02-28T03:58:07.890Z,45.00
2023-02-28T04:00:34.378Z,45.00
2023-02-28T04:03:00.854Z,44.80
2023-02-28T04:05:27.320Z,44.90
2023-02-28T04:07:53.798Z,44.90
2023-02-28T04:10:20.261Z,44.90
2023-02-28T04:12:46.733Z,45.00
2023-02-28T04:15:13.220Z,44.80
2023-02-28T04:17:39.687Z,44.80
2023-02-28T04:20:06.154Z,44.80
2023-02-28T04:22:32.653Z,44.90
2023-02-28T04:24:59.124Z,44.90
2023-02-28T04:27:25.586Z,44.90
2023-02-28T04:29:52.057Z,44.90
2023-02-28T04:32:18.708Z,44.90
2023-02-28T04:34:45.247Z,44.80
2023-02-28T04:37:14.173Z,44.80
2023-02-28T04:39:40.897Z,44.80
2023-02-28T04:42:07.386Z,44.70
2023-02-28T04:44:33.878Z,44.60
2023-02-28T04:47:00.372Z,44.60
2023-02-28T04:49:26.877Z,44.60
2023-02-28T04:51:53.366Z,44.60
2023-02-28T04:54:19.833Z,44.60
2023-02-28T04:56:46.315Z,44.60
2023-02-28T04:59:12.798Z,44.50
2023-02-28T05:01:39.280Z,44.50
2023-02-28T05:04:05.773Z,44.50
2023-02-28T05:06:32.273Z,44.50
2023-02-28T05:08:58.751Z,44.60
2023-02-28T05:11:25.275Z,44.60
2023-02-28T05:13:51.761Z,44.60
2023-02-28T05:16:18.281Z,44.50
2023-02-28T05:18:44.840Z,44.50
2023-02-28T05:21:11.350Z,44.50
2023-02-28T05:23:37.827Z,44.50
2023-02-28T05:26:04.317Z,44.40
2023-02-28T05:28:30.796Z,44.40
2023-02-28T05:30:57.279Z,44.40
2023-02-28T05:33:23.752Z,44.40
2023-02-28T05:35:50.244Z,44.30
2023-02-28T05:38:16.752Z,44.30
2023-02-28T05:40:43.228Z,44.40
2023-02-28T05:43:09.695Z,44.40
2023-02-28T05:45:36.214Z,44.30
2023-02-28T05:48:02.717Z,44.30
2023-02-28T05:50:29.206Z,44.20
2023-02-28T05:52:55.688Z,44.20
2023-02-28T05:55:22.172Z,44.30
2023-02-28T05:57:48.680Z,44.30
2023-02-28T06:00:15.147Z,44.20
2023-02-28T06:02:41.631Z,44.20
2023-02-28T06:05:08.115Z,44.20
2023-02-28T06:07:34.624Z,44.20
2023-02-28T06:10:01.075Z,44.20
2023-02-28T06:12:27.561Z,44.10
2023-02-28T06:14:54.024Z,44.00
2023-02-28T06:17:20.535Z,44.10
2023-02-28T06:19:47.015Z,44.10
2023-02-28T06:22:13.464Z,44.00
2023-02-28T06:24:39.954Z,44.00
2023-02-28T06:27:06.661Z,44.00
2023-02-28T06:29:33.169Z,44.10
2023-02-28T06:31:59.667Z,44.00
2023-02-28T06:34:26.153Z,43.90
2023-02-28T06:36:52.644Z,44.00
2023-02-28T06:39:19.198Z,43.90
2023-02-28T06:41:54.697Z,43.90
2023-02-28T06:44:22.394Z,43.90
2023-02-28T06:46:48.875Z,44.00
2023-02-28T06:49:15.392Z,43.90
2023-02-28T06:51:41.886Z,43.80
2023-02-28T06:54:08.365Z,43.90
2023-02-28T06:56:34.846Z,43.80
2023-02-28T06:59:01.329Z,43.90
2023-02-28T07:01:28.273Z,43.80
2023-02-28T07:03:54.989Z,43.90
2023-02-28T07:06:21.474Z,43.90
2023-02-28T07:08:47.943Z,43.80
2023-02-28T07:11:14.427Z,43.80
2023-02-28T07:13:40.899Z,43.80
2023-02-28T07:16:07.604Z,43.80
2023-02-28T07:18:34.202Z,43.80
2023-02-28T07:21:00.670Z,43.90
2023-02-28T07:23:27.155Z,44.60
2023-02-28T07:25:53.627Z,43.80
2023-02-28T07:28:20.100Z,43.80
2023-02-28T07:30:46.594Z,43.80
2023-02-28T07:33:13.082Z,43.80
2023-02-28T07:35:39.628Z,43.80
2023-02-28T07:38:06.105Z,43.80
2023-02-28T07:40:32.588Z,43.70
2023-02-28T07:42:59.045Z,43.80
2023-02-28T07:45:25.524Z,43.80
2023-02-28T07:47:52.029Z,44.70
2023-02-28T07:50:18.488Z,43.90
2023-02-28T07:52:44.970Z,43.90
2023-02-28T07:55:11.460Z,43.90
2023-02-28T07:57:37.917Z,43.80
2023-02-28T08:00:04.388Z,43.80
2023-02-28T08:02:30.898Z,44.60
2023-02-28T08:04:59.005Z,44.80
2023-02-28T08:07:25.509Z,43.80
2023-02-28T08:09:52.006Z,43.70
2023-02-28T08:12:18.473Z,43.70
2023-02-28T08:14:44.973Z,43.80
2023-02-28T08:17:11.422Z,43.70
2023-02-28T08:19:37.934Z,43.80
2023-02-28T08:22:04.407Z,44.80
2023-02-28T08:24:30.915Z,44.70
2023-02-28T08:26:57.391Z,44.70
2023-02-28T08:29:23.867Z,43.80
2023-02-28T08:31:50.497Z,43.80
2023-02-28T08:34:17.039Z,43.80
2023-02-28T08:36:43.575Z,43.80
2023-02-28T08:39:10.087Z,43.90
2023-02-28T08:41:36.597Z,44.70
2023-02-28T08:44:03.065Z,43.90
2023-02-28T08:46:29.574Z,44.80
2023-02-28T08:48:56.065Z,44.70
2023-02-28T08:51:22.545Z,43.90
2023-02-28T08:53:49.014Z,43.80
2023-02-28T08:56:15.506Z,43.80
2023-02-28T08:58:42.080Z,43.80
2023-02-28T09:01:08.643Z,43.70
2023-02-28T09:03:35.186Z,43.70
2023-02-28T09:06:01.661Z,43.70
2023-02-28T09:08:28.139Z,43.60
2023-02-28T09:10:54.614Z,43.60
2023-02-28T09:13:21.073Z,43.70
2023-02-28T09:15:47.552Z,43.60
2023-02-28T09:18:14.027Z,43.50
2023-02-28T09:20:40.654Z,43.50
2023-02-28T09:23:07.122Z,43.70
2023-02-28T09:25:33.618Z,43.70
2023-02-28T09:28:00.111Z,43.80
2023-02-28T09:30:26.649Z,43.80
2023-02-28T09:32:53.213Z,43.80
2023-02-28T09:35:19.715Z,43.80
2023-02-28T09:37:46.195Z,43.80
2023-02-28T09:40:12.680Z,43.80
2023-02-28T09:42:39.176Z,43.60
2023-02-28T09:45:05.645Z,43.40
2023-02-28T09:47:32.154Z,43.50
2023-02-28T09:49:58.632Z,43.60
2023-02-28T09:52:25.092Z,43.60
2023-02-28T09:54:51.555Z,43.60
2023-02-28T09:57:18.035Z,43.70
2023-02-28T09:59:44.495Z,43.60
2023-02-28T10:02:11.029Z,43.70
2023-02-28T10:04:37.586Z,43.70
2023-02-28T10:07:04.101Z,43.80
2023-02-28T10:09:30.571Z,43.90
2023-02-28T10:11:58.513Z,43.80
2023-02-28T10:14:25.522Z,43.80
2023-02-28T10:16:51.991Z,43.70
2023-02-28T10:19:18.468Z,43.80
2023-02-28T10:21:44.951Z,43.90
2023-02-28T10:26:42.844Z,43.80
2023-02-28T10:29:09.313Z,43.80
2023-02-28T10:31:35.788Z,43.90
2023-02-28T10:34:02.270Z,43.80
2023-02-28T10:36:28.997Z,43.80
2023-02-28T10:38:56.727Z,43.70
2023-02-28T10:41:23.235Z,43.60
2023-02-28T10:43:49.716Z,43.70
2023-02-28T10:46:16.319Z,43.60
2023-02-28T10:48:42.880Z,43.70
2023-02-28T10:51:09.350Z,43.70
2023-02-28T10:53:44.741Z,43.80
2023-02-28T10:56:22.317Z,43.50
2023-02-28T10:58:48.814Z,43.50
2023-02-28T11:01:15.329Z,43.30
2023-02-28T11:03:41.812Z,43.20
2023-02-28T11:06:08.308Z,43.30
2023-02-28T11:08:34.782Z,43.40
2023-02-28T11:11:01.294Z,43.50
2023-02-28T11:13:27.769Z,43.50
2023-02-28T11:15:54.628Z,43.60
2023-02-28T11:18:21.101Z,43.60
2023-02-28T11:20:47.591Z,43.70
2023-02-28T11:23:14.055Z,43.70
2023-02-28T11:25:40.595Z,43.70
2023-02-28T11:28:07.065Z,43.80
2023-02-28T11:30:33.729Z,43.60
2023-02-28T11:33:00.251Z,43.90
2023-02-28T11:35:26.774Z,43.90
2023-02-28T11:37:53.261Z,43.80
2023-02-28T11:40:19.759Z,43.60
2023-02-28T11:42:46.238Z,43.80
2023-02-28T11:45:12.711Z,43.70
2023-02-28T11:47:39.179Z,43.90
2023-02-28T11:50:05.643Z,44.00
2023-02-28T11:52:32.136Z,43.90
2023-02-28T11:54:58.605Z,44.00
2023-02-28T11:57:25.095Z,44.00
2023-02-28T11:59:51.575Z,44.00
2023-02-28T12:02:18.079Z,44.00
2023-02-28T12:04:44.549Z,44.00
2023-02-28T12:07:11.039Z,43.90
2023-02-28T12:09:37.529Z,44.10
2023-02-28T12:12:04.000Z,44.10
2023-02-28T12:14:30.495Z,44.30
2023-02-28T12:16:56.968Z,44.30
2023-02-28T12:19:23.447Z,44.30
2023-02-28T12:21:49.955Z,44.40
2023-02-28T12:24:16.445Z,44.30
2023-02-28T12:26:42.960Z,45.30
2023-02-28T12:29:09.434Z,45.20
2023-02-28T12:31:36.119Z,44.50
2023-02-28T12:34:02.615Z,44.30
2023-02-28T12:36:29.092Z,44.30
2023-02-28T12:38:58.427Z,44.30
2023-02-28T12:41:24.892Z,44.30
2023-02-28T12:43:51.366Z,44.50
2023-02-28T12:46:17.895Z,44.50
2023-02-28T12:48:44.399Z,44.60
2023-02-28T12:51:10.877Z,44.50
2023-02-28T12:53:37.357Z,44.40
2023-02-28T12:56:03.829Z,44.50
2023-02-28T12:58:30.313Z,44.50
2023-02-28T13:00:56.790Z,44.50
2023-02-28T13:03:23.311Z,44.50
2023-02-28T13:05:49.782Z,44.60
2023-02-28T13:08:16.274Z,44.60
2023-02-28T13:10:42.767Z,44.50
2023-02-28T13:13:09.258Z,44.60
2023-02-28T13:15:35.728Z,44.60
2023-02-28T13:18:02.227Z,44.60
2023-02-28T13:20:28.715Z,44.70
2023-02-28T13:22:55.214Z,44.70
2023-02-28T13:25:21.682Z,45.70
2023-02-28T13:27:48.180Z,44.80
2023-02-28T13:30:14.668Z,44.80
2023-02-28T13:32:41.162Z,44.80
2023-02-28T13:35:07.660Z,44.70
2023-02-28T13:37:34.197Z,44.90
2023-02-28T13:40:00.662Z,44.80
2023-02-28T13:42:27.140Z,44.60
2023-02-28T13:44:54.712Z,44.60
2023-02-28T13:47:21.656Z,44.60
2023-02-28T13:49:48.271Z,44.70
2023-02-28T13:52:14.763Z,44.80
2023-02-28T13:54:41.255Z,44.70
2023-02-28T13:57:07.730Z,44.60
2023-02-28T13:59:34.221Z,44.60
2023-02-28T14:02:00.710Z,44.70
2023-02-28T14:04:27.252Z,44.70
2023-02-28T14:06:53.772Z,44.80
2023-02-28T14:09:20.496Z,44.70
2023-02-28T14:11:47.041Z,44.60
2023-02-28T14:14:13.561Z,44.80
2023-02-28T14:16:40.042Z,44.80
2023-02-28T14:19:06.502Z,44.80
2023-02-28T14:21:32.999Z,44.80
2023-02-28T14:23:59.480Z,44.80
2023-02-28T14:26:25.967Z,44.80
2023-02-28T14:28:52.443Z,44.80
2023-02-28T14:31:18.942Z,44.80
2023-02-28T14:33:45.448Z,44.80
2023-02-28T14:36:11.922Z,44.80
2023-02-28T14:38:38.394Z,44.80
2023-02-28T14:41:04.880Z,44.70
2023-02-28T14:43:31.389Z,44.80
2023-02-28T14:45:57.879Z,44.70
2023-02-28T14:48:26.069Z,44.90
2023-02-28T14:50:52.787Z,44.80
2023-02-28T14:53:19.247Z,44.80
2023-02-28T14:55:45.746Z,44.80
2023-02-28T14:58:12.216Z,44.70
2023-02-28T15:00:38.778Z,44.80
2023-02-28T15:03:05.265Z,44.90
2023-02-28T15:05:31.738Z,45.00
2023-02-28T15:07:58.202Z,44.90
2023-02-28T15:10:24.709Z,45.00
2023-02-28T15:12:51.201Z,44.90
2023-02-28T15:15:17.685Z,44.80
2023-02-28T15:17:44.164Z,44.80
2023-02-28T15:20:10.720Z,44.80
2023-02-28T15:22:37.210Z,44.70
2023-02-28T15:25:03.700Z,44.70
2023-02-28T15:27:30.497Z,44.80
2023-02-28T15:29:56.943Z,44.80
2023-02-28T15:32:23.497Z,44.80
2023-02-28T15:34:50.079Z,44.80
2023-02-28T15:37:18.206Z,44.90
2023-02-28T15:39:44.725Z,44.80
2023-02-28T15:42:11.180Z,44.90
2023-02-28T15:44:38.224Z,45.00
2023-02-28T15:47:04.871Z,44.90
2023-02-28T15:49:33.486Z,44.90
2023-02-28T15:52:01.761Z,44.90
2023-02-28T15:54:28.349Z,45.00
2023-02-28T15:56:54.862Z,45.00
2023-02-28T15:59:21.382Z,45.00
2023-02-28T16:01:47.937Z,44.90
2023-02-28T16:04:14.484Z,44.90
2023-02-28T16:06:40.991Z,44.90
2023-02-28T16:09:07.461Z,44.90
2023-02-28T16:11:33.948Z,45.00
2023-02-28T16:14:00.428Z,45.30
2023-02-28T16:16:26.967Z,45.20
2023-02-28T16:18:53.466Z,45.20
2023-02-28T16:21:19.973Z,45.20
2023-02-28T16:23:46.452Z,45.30
2023-02-28T16:26:13.474Z,45.20
2023-02-28T16:28:40.012Z,45.10
2023-02-28T16:31:06.482Z,45.10
2023-02-28T16:33:32.970Z,45.10
2023-02-28T16:35:59.506Z,45.30
2023-02-28T16:38:25.998Z,45.10
2023-02-28T16:40:52.462Z,45.20
2023-02-28T16:43:18.935Z,45.30
2023-02-28T16:45:45.440Z,45.30
2023-02-28T16:48:11.933Z,45.30
2023-02-28T16:50:38.436Z,45.20
2023-02-28T16:53:04.927Z,45.20
2023-02-28T16:55:31.407Z,45.30
2023-02-28T16:57:57.885Z,45.40
2023-02-28T17:00:24.377Z,45.40
2023-02-28T17:02:50.928Z,45.40
2023-02-28T17:05:17.436Z,45.30
2023-02-28T17:07:43.919Z,45.40
2023-02-28T17:10:10.448Z,45.30
2023-02-28T17:12:36.933Z,45.30
2023-02-28T17:15:03.411Z,45.40
2023-02-28T17:17:29.881Z,45.30
2023-02-28T17:19:56.403Z,45.30
2023-02-28T17:22:22.900Z,45.40
2023-02-28T17:24:49.361Z,45.30
2023-02-28T17:27:15.845Z,45.30
2023-02-28T17:29:42.312Z,45.30
2023-02-28T17:32:17.156Z,45.30
2023-02-28T17:34:43.958Z,45.40
2023-02-28T17:37:10.441Z,45.30
2023-02-28T17:39:36.923Z,45.50
2023-02-28T17:42:03.401Z,45.30
2023-02-28T17:44:29.890Z,45.40
2023-02-28T17:46:56.365Z,45.40
2023-02-28T17:49:22.844Z,45.30
2023-02-28T17:51:49.300Z,45.30
2023-02-28T17:54:17.589Z,45.30
2023-02-28T17:56:44.695Z,45.30
2023-02-28T17:59:11.182Z,45.40
2023-02-28T18:01:37.776Z,45.30
2023-02-28T18:04:04.274Z,45.30
2023-02-28T18:06:31.014Z,45.30
2023-02-28T18:08:57.698Z,45.30
2023-02-28T18:11:24.189Z,45.30
2023-02-28T18:13:50.688Z,45.30
2023-02-28T18:16:17.209Z,45.20
2023-02-28T18:18:43.717Z,45.30
2023-02-28T18:21:10.204Z,45.30
2023-02-28T18:23:36.692Z,45.20
2023-02-28T18:26:03.171Z,45.20
2023-02-28T18:28:29.659Z,45.20
2023-02-28T18:30:56.124Z,45.30
2023-02-28T18:33:22.595Z,45.10
2023-02-28T18:35:49.100Z,45.30
2023-02-28T18:38:15.583Z,45.20
2023-02-28T18:40:42.042Z,45.30
2023-02-28T18:43:08.513Z,45.10
2023-02-28T18:45:34.966Z,45.30
2023-02-28T18:48:01.470Z,45.30
2023-02-28T18:50:27.932Z,45.20
2023-02-28T18:52:54.383Z,45.00
2023-02-28T18:55:20.860Z,45.10
2023-02-28T18:57:47.350Z,45.10
2023-02-28T19:00:13.828Z,45.00
2023-02-28T19:02:40.336Z,45.10
2023-02-28T19:05:06.830Z,45.10
2023-02-28T19:07:33.338Z,45.00
2023-02-28T19:09:59.810Z,45.10
2023-02-28T19:12:26.319Z,45.10
2023-02-28T19:14:52.813Z,44.90
2023-02-28T19:17:19.292Z,45.00
2023-02-28T19:19:45.773Z,45.00
2023-02-28T19:22:12.281Z,45.10
2023-02-28T19:24:38.762Z,44.80
2023-02-28T19:27:05.242Z,44.80
2023-02-28T19:29:31.712Z,44.80
2023-02-28T19:31:58.270Z,44.90
2023-02-28T19:34:24.793Z,45.00
2023-02-28T19:36:51.268Z,44.90
2023-02-28T19:39:17.744Z,44.80
2023-02-28T19:41:44.214Z,44.80
2023-02-28T19:44:10.707Z,44.70
2023-02-28T19:46:37.175Z,44.80
2023-02-28T19:49:03.644Z,44.80
2023-02-28T19:51:30.105Z,44.60
2023-02-28T19:53:56.581Z,44.80
2023-02-28T19:56:23.067Z,44.70
2023-02-28T19:58:49.546Z,44.80
2023-02-28T20:01:16.069Z,44.80
2023-02-28T20:03:42.607Z,44.70
2023-02-28T20:06:09.080Z,44.70
2023-02-28T20:08:35.576Z,44.60
2023-02-28T20:11:02.503Z,44.60
2023-02-28T20:13:29.044Z,44.60
2023-02-28T20:15:55.531Z,44.60
2023-02-28T20:18:21.999Z,44.60
2023-02-28T20:20:48.513Z,45.30
2023-02-28T20:23:14.987Z,44.70
2023-02-28T20:25:41.471Z,44.50
2023-02-28T20:28:07.957Z,44.60
2023-02-28T20:30:34.468Z,44.60
2023-02-28T20:33:01.054Z,44.60
2023-02-28T20:35:27.593Z,44.40
2023-02-28T20:37:54.094Z,44.50
2023-02-28T20:40:20.583Z,44.60
2023-02-28T20:42:47.062Z,44.60
2023-02-28T20:45:13.533Z,44.50
2023-02-28T20:47:40.018Z,44.40
2023-02-28T20:50:06.488Z,44.50
2023-02-28T20:52:32.943Z,44.30
2023-02-28T20:54:59.400Z,44.30
2023-02-28T20:57:25.857Z,44.40
2023-02-28T20:59:52.337Z,44.40
2023-02-28T21:02:18.800Z,44.20
2023-02-28T21:04:45.306Z,44.20
2023-02-28T21:07:11.782Z,44.20
2023-02-28T21:09:38.272Z,44.10
2023-02-28T21:12:04.751Z,44.10
2023-02-28T21:14:31.218Z,44.10
2023-02-28T21:16:57.683Z,44.30
2023-02-28T21:19:24.205Z,44.20
2023-02-28T21:21:50.681Z,44.20
2023-02-28T21:24:17.218Z,44.10
2023-02-28T21:26:43.677Z,44.20
2023-02-28T21:29:10.151Z,44.10
2023-02-28T21:31:36.616Z,44.10
2023-02-28T21:34:03.097Z,44.20
2023-02-28T21:36:29.870Z,44.30
2023-02-28T21:38:56.585Z,44.10
2023-02-28T21:41:23.070Z,44.20
2023-02-28T21:43:49.547Z,44.00
2023-02-28T21:46:16.038Z,44.00
2023-02-28T21:48:47.622Z,44.00
2023-02-28T21:51:14.111Z,44.00
2023-02-28T21:53:40.592Z,44.00
2023-02-28T21:56:07.085Z,43.80
2023-02-28T21:58:33.574Z,44.20
2023-02-28T22:01:00.037Z,44.10
2023-02-28T22:03:26.523Z,43.90
2023-02-28T22:05:52.994Z,44.00
2023-02-28T22:08:19.480Z,44.00
2023-02-28T22:10:45.952Z,43.90
2023-02-28T22:13:12.425Z,44.00
2023-02-28T22:15:38.906Z,44.00
2023-02-28T22:18:05.359Z,44.00
2023-02-28T22:20:31.819Z,43.90
2023-02-28T22:22:58.322Z,44.00
2023-02-28T22:25:24.823Z,44.00
2023-02-28T22:27:51.303Z,44.00
2023-02-28T22:30:17.781Z,43.80
2023-02-28T22:32:44.240Z,43.90
2023-02-28T22:35:10.718Z,43.80
2023-02-28T22:37:37.188Z,44.00
2023-02-28T22:40:03.661Z,44.00
2023-02-28T22:42:30.146Z,44.00
2023-02-28T22:44:56.604Z,43.70
2023-02-28T22:47:23.074Z,43.90
2023-02-28T22:49:49.557Z,43.90
2023-02-28T22:52:16.043Z,44.00
2023-02-28T22:54:42.515Z,43.90
2023-02-28T22:57:08.990Z,43.90
2023-02-28T22:59:35.482Z,43.80
2023-02-28T23:02:01.968Z,43.70
2023-02-28T23:04:28.465Z,43.90
2023-02-28T23:06:54.978Z,43.90
2023-02-28T23:09:21.487Z,43.70
2023-02-28T23:11:47.997Z,43.70
2023-02-28T23:14:14.459Z,43.70
2023-02-28T23:16:41.012Z,43.80
2023-02-28T23:19:07.509Z,43.70
2023-02-28T23:21:34.012Z,43.60
2023-02-28T23:24:00.494Z,43.70
2023-02-28T23:26:26.988Z,43.70
2023-02-28T23:28:53.470Z,43.70
2023-02-28T23:31:19.980Z,43.70
2023-02-28T23:33:46.472Z,43.70
2023-02-28T23:36:12.978Z,43.70
2023-02-28T23:38:39.460Z,43.70
2023-02-28T23:41:05.950Z,43.70
2023-02-28T23:43:32.418Z,43.70
2023-02-28T23:45:58.948Z,43.80
2023-02-28T23:48:25.464Z,43.70
2023-02-28T23:50:51.950Z,43.60
2023-02-28T23:53:18.440Z,43.60
2023-02-28T23:55:44.937Z,43.70
2023-02-28T23:58:11.409Z,44.30
